.
WxDataArchive / Data Records for 2015-10-13
2015-10-12 October 2015 2015-10-14

Data Records for Tuesday, 13 October 2015

Time	Temp	Chill	HIndex	Humid	Dewpt	 Wind 	HiWind	WindDir	Rain 	Barom
-----	----	-----	------	-----	-----	------	------	-------	-----	-----
00:00	62.4	62.4	62.4	47	41.9	0	2	270	0.00	29.495 
00:05	62.3	62.3	62.3	47	41.8	0	0	---	0.00	29.495 
00:10	62.0	62.0	62.0	48	42.1	0	1	270	0.00	29.495 
00:15	61.6	61.6	61.6	48	41.7	0	1	270	0.00	29.491 
00:20	61.3	61.3	61.3	49	42.0	0	0	---	0.00	29.491 
00:25	61.0	61.0	61.0	49	41.7	0	1	270	0.00	29.491 
00:30	60.9	60.9	60.9	50	42.1	0	1	292	0.00	29.490 
00:35	60.5	60.5	60.5	50	41.8	0	1	292	0.00	29.490 
00:40	60.4	60.4	60.4	51	42.2	0	0	---	0.00	29.490 
00:45	60.2	60.2	60.2	51	42.0	0	1	292	0.00	29.488 
00:50	59.9	59.9	59.9	51	41.7	0	1	292	0.00	29.488 
00:55	59.8	59.8	59.8	52	42.1	0	0	---	0.00	29.488 
01:00	59.5	59.5	59.5	52	41.9	0	1	292	0.00	29.485 
01:05	59.3	59.3	59.3	53	42.2	0	0	---	0.00	29.485 
01:10	59.2	59.2	59.2	54	42.6	0	0	---	0.00	29.485 
01:15	58.9	58.9	58.9	54	42.3	0	0	---	0.00	29.480 
01:20	58.7	58.7	58.7	54	42.1	0	0	---	0.00	29.480 
01:25	58.6	58.6	58.6	54	42.0	0	0	---	0.00	29.480 
01:30	58.4	58.4	58.4	54	41.8	0	0	---	0.00	29.476 
01:35	58.3	58.3	58.3	55	42.2	0	0	---	0.00	29.476 
01:40	58.1	58.1	58.1	55	42.0	0	0	---	0.00	29.476 
01:45	58.0	58.0	58.0	56	42.4	0	0	---	0.00	29.473 
01:50	58.0	58.0	58.0	56	42.4	0	1	292	0.00	29.473 
01:55	57.8	57.8	57.8	57	42.7	0	0	---	0.00	29.473 
02:00	57.8	57.8	57.8	57	42.7	0	1	292	0.00	29.469 
02:05	57.6	57.6	57.6	57	42.5	0	0	---	0.00	29.469 
02:10	57.6	57.6	57.6	57	42.5	0	1	292	0.00	29.469 
02:15	57.6	57.6	57.6	57	42.5	0	0	---	0.00	29.465 
02:20	57.6	57.6	57.6	57	42.5	0	1	292	0.00	29.465 
02:25	57.6	57.6	57.6	57	42.5	0	1	292	0.00	29.465 
02:30	57.6	57.6	57.6	57	42.5	0	0	---	0.00	29.465 
02:35	57.6	57.6	57.6	58	42.9	0	0	---	0.00	29.465 
02:40	57.5	57.5	57.5	58	42.8	0	0	---	0.00	29.465 
02:45	57.2	57.2	57.2	58	42.6	0	0	---	0.00	29.465 
02:50	57.2	57.2	57.2	58	42.6	0	0	---	0.00	29.465 
02:55	57.2	57.2	57.2	58	42.6	0	0	---	0.00	29.465 
03:00	57.2	57.2	57.2	58	42.6	0	0	---	0.00	29.464 
03:05	57.5	57.5	57.5	58	42.8	0	0	---	0.00	29.464 
03:10	57.5	57.5	57.5	58	42.8	0	0	---	0.00	29.464 
03:15	57.6	57.6	57.6	58	42.9	0	0	---	0.00	29.471 
03:20	57.6	57.6	57.6	58	42.9	0	0	---	0.00	29.471 
03:25	57.8	57.8	57.8	58	43.1	0	0	---	0.00	29.471 
03:30	57.6	57.6	57.6	58	42.9	0	0	---	0.00	29.475 
03:35	57.6	57.6	57.6	58	42.9	0	3	270	0.00	29.475 
03:40	57.6	57.6	57.6	58	42.9	0	2	270	0.00	29.475 
03:45	57.5	57.5	57.5	59	43.3	0	2	270	0.00	29.476 
03:50	57.3	57.3	57.3	59	43.1	0	1	270	0.00	29.476 
03:55	57.3	57.3	57.3	59	43.1	0	1	270	0.00	29.476 
04:00	57.2	57.2	57.2	60	43.4	0	1	270	0.00	29.478 
04:05	57.2	57.2	57.2	60	43.4	0	1	270	0.00	29.478 
04:10	57.0	57.0	57.0	62	44.1	0	2	270	0.00	29.478 
04:15	56.9	56.9	56.9	65	45.3	2	5	292	0.00	29.488 
04:20	56.7	56.7	56.7	68	46.3	1	5	292	0.00	29.488 
04:25	56.5	56.5	56.5	69	46.5	1	4	292	0.00	29.488 
04:30	56.3	56.3	56.3	70	46.6	0	3	292	0.00	29.490 
04:35	56.2	56.2	56.2	70	46.5	0	4	270	0.00	29.490 
04:40	56.0	56.0	56.0	70	46.4	2	6	270	0.00	29.490 
04:45	55.9	55.9	55.9	70	46.3	2	4	270	0.00	29.492 
04:50	55.7	55.7	55.7	70	46.1	2	7	292	0.00	29.492 
04:55	55.6	55.6	55.6	71	46.3	1	4	270	0.00	29.492 
05:00	55.6	55.6	55.6	71	46.3	0	2	270	0.00	29.493 
05:05	55.4	55.4	55.4	72	46.5	0	3	270	0.00	29.493 
05:10	55.4	55.4	55.4	72	46.5	1	5	270	0.00	29.493 
05:15	55.3	55.3	55.3	73	46.8	2	5	270	0.00	29.498 
05:20	55.1	55.1	55.1	72	46.2	2	6	270	0.00	29.498 
05:25	55.0	55.0	55.0	72	46.1	1	4	270	0.00	29.498 
05:30	55.0	55.0	55.0	72	46.1	2	4	270	0.00	29.508 
05:35	55.0	55.0	55.0	72	46.1	1	3	270	0.00	29.508 
05:40	54.8	54.8	54.8	72	45.9	1	5	338	0.00	29.508 
05:45	54.8	54.8	54.8	72	45.9	1	5	315	0.00	29.514 
05:50	54.7	54.7	54.7	72	45.9	1	5	292	0.00	29.514 
05:55	54.7	54.7	54.7	72	45.9	2	5	292	0.00	29.514 
06:00	54.7	54.7	54.7	72	45.9	2	5	270	0.00	29.514 
06:05	54.7	54.7	54.7	72	45.9	2	6	248	0.00	29.514 
06:10	54.5	54.5	54.5	73	46.0	1	3	248	0.00	29.514 
06:15	54.5	54.5	54.5	73	46.0	1	5	248	0.00	29.520 
06:20	54.4	54.4	54.4	69	44.4	3	6	292	0.00	29.520 
06:25	54.4	54.4	54.4	67	43.7	2	7	270	0.00	29.520 
06:30	54.4	54.4	54.4	65	42.9	2	5	292	0.00	29.527 
06:35	54.2	54.2	54.2	64	42.3	1	4	292	0.00	29.527 
06:40	54.2	54.2	54.2	62	41.5	4	11	292	0.00	29.527 
06:45	54.1	54.1	54.1	62	41.4	2	7	270	0.00	29.530 
06:50	54.1	54.1	54.1	62	41.4	2	6	270	0.00	29.530 
06:55	54.1	54.1	54.1	62	41.4	3	7	270	0.00	29.530 
07:00	53.9	53.9	53.9	62	41.2	3	6	292	0.00	29.540 
07:05	53.9	53.9	53.9	62	41.2	2	5	270	0.00	29.540 
07:10	53.6	53.6	53.6	62	40.9	1	3	270	0.00	29.540 
07:15	53.5	53.5	53.5	62	40.8	2	5	270	0.00	29.545 
07:20	53.2	53.2	53.2	63	40.9	2	6	270	0.00	29.545 
07:25	52.9	52.9	52.9	63	40.7	2	6	292	0.00	29.545 
07:30	52.6	52.6	52.6	64	40.8	2	6	270	0.00	29.550 
07:35	52.3	52.3	52.3	65	40.9	1	4	270	0.00	29.550 
07:40	52.2	52.2	52.2	65	40.8	2	6	270	0.00	29.550 
07:45	52.0	52.0	52.0	66	41.0	1	4	292	0.00	29.560 
07:50	51.9	51.9	51.9	67	41.3	1	5	292	0.00	29.560 
07:55	51.7	51.7	51.7	67	41.1	1	4	292	0.00	29.560 
08:00	51.9	51.9	51.9	68	41.7	1	3	292	0.00	29.562 
08:05	51.9	51.9	51.9	68	41.7	1	3	292	0.00	29.562 
08:10	51.9	51.9	51.9	68	41.7	1	3	292	0.00	29.562 
08:15	52.0	52.0	52.0	68	41.8	0	2	292	0.00	29.567 
08:20	52.0	52.0	52.0	68	41.8	1	3	292	0.00	29.567 
08:25	52.2	52.2	52.2	68	42.0	0	3	292	0.00	29.567 
08:30	52.2	52.2	52.2	68	42.0	0	2	292	0.00	29.569 
08:35	52.2	52.2	52.2	68	42.0	1	2	292	0.00	29.569 
08:40	52.3	52.3	52.3	68	42.1	1	3	292	0.00	29.569 
08:45	52.3	52.3	52.3	68	42.1	2	5	292	0.00	29.578 
08:50	52.5	52.5	52.5	68	42.2	1	4	292	0.00	29.578 
08:55	52.5	52.5	52.5	68	42.2	1	3	315	0.00	29.578 
09:00	52.6	52.6	52.6	68	42.3	1	3	315	0.00	29.581 
09:05	52.8	52.8	52.8	67	42.1	3	6	292	0.00	29.581 
09:10	52.8	52.8	52.8	67	42.1	2	5	270	0.00	29.581 
09:15	52.8	52.8	52.8	68	42.5	2	6	292	0.00	29.585 
09:20	52.8	52.8	52.8	68	42.5	3	6	292	0.00	29.585 
09:25	52.8	52.8	52.8	68	42.5	2	5	292	0.00	29.585 
09:30	52.8	52.8	52.8	69	42.9	2	5	270	0.00	29.598 
09:35	52.8	52.8	52.8	69	42.9	2	5	270	0.00	29.598 
09:40	52.6	52.6	52.6	69	42.7	1	6	270	0.00	29.598 
09:45	52.6	52.6	52.6	69	42.7	2	9	270	0.00	29.605 
09:50	52.5	52.5	52.5	70	43.0	2	5	270	0.00	29.605 
09:55	52.5	52.5	52.5	70	43.0	3	7	270	0.00	29.605 
10:00	52.3	52.3	52.3	70	42.8	2	5	270	0.00	29.613 
10:05	52.5	52.5	52.5	71	43.4	2	5	270	0.00	29.613 
10:10	52.3	52.3	52.3	70	42.8	3	7	270	0.00	29.613 
10:15	52.5	52.5	52.5	71	43.4	2	5	292	0.00	29.612 
10:20	52.6	52.6	52.6	71	43.5	1	3	292	0.00	29.612 
10:25	52.6	52.6	52.6	70	43.1	2	5	292	0.00	29.612 
10:30	52.8	52.8	52.8	71	43.7	1	4	270	0.00	29.614 
10:35	52.8	52.8	52.8	71	43.7	1	4	270	0.00	29.614 
10:40	52.8	52.8	52.8	71	43.7	2	4	270	0.00	29.614 
10:45	52.9	52.9	52.9	71	43.8	1	5	270	0.00	29.622 
10:50	52.9	52.9	52.9	71	43.8	2	6	270	0.00	29.622 
10:55	52.9	52.9	52.9	71	43.8	2	7	270	0.00	29.622 
11:00	52.9	52.9	52.9	70	43.4	2	6	292	0.00	29.628 
11:05	52.9	52.9	52.9	71	43.8	2	7	270	0.00	29.628 
11:10	53.1	53.1	53.1	71	43.9	1	6	292	0.00	29.628 
11:15	53.1	53.1	53.1	70	43.6	3	7	292	0.00	29.632 
11:20	53.2	53.2	53.2	71	44.0	2	6	270	0.00	29.632 
11:25	53.3	53.3	53.3	71	44.1	1	5	292	0.00	29.632 
11:30	53.3	53.3	53.3	70	43.8	1	4	270	0.00	29.634 
11:35	53.3	53.3	53.3	70	43.8	1	4	270	0.00	29.634 
11:40	53.3	53.3	53.3	70	43.8	1	3	270	0.00	29.634 
11:45	53.5	53.5	53.5	70	44.0	1	3	270	0.00	29.641 
11:50	53.5	53.5	53.5	70	44.0	1	4	270	0.00	29.641 
11:55	53.6	53.6	53.6	70	44.1	1	3	270	0.00	29.641 
12:00	54.1	54.1	54.1	70	44.5	1	4	270	0.00	29.636 
12:05	54.5	54.5	54.5	69	44.5	2	6	292	0.00	29.636 
12:10	55.1	55.1	55.1	68	44.7	3	7	292	0.00	29.636 
12:15	55.7	55.7	55.7	67	44.9	2	6	270	0.00	29.639 
12:20	56.3	56.3	56.3	65	44.7	2	6	270	0.00	29.639 
12:25	56.6	56.6	56.6	64	44.6	3	7	270	0.00	29.639 
12:30	56.3	56.3	56.3	63	43.9	3	7	270	0.00	29.644 
12:35	56.3	56.3	56.3	65	44.7	2	5	270	0.00	29.644 
12:40	56.3	56.3	56.3	64	44.3	3	7	292	0.00	29.644 
12:45	56.3	56.3	56.3	65	44.7	2	5	270	0.00	29.646 
12:50	56.3	56.3	56.3	64	44.3	4	7	315	0.00	29.646 
12:55	56.3	56.3	56.3	65	44.7	3	5	315	0.00	29.646 
13:00	56.7	56.7	56.7	65	45.1	2	6	292	0.00	29.647 
13:05	57.0	57.0	57.0	63	44.5	2	6	270	0.00	29.647 
13:10	57.2	57.2	57.2	63	44.7	2	4	270	0.00	29.647 
13:15	57.8	57.8	57.8	62	44.9	3	9	315	0.00	29.650 
13:20	57.8	57.8	57.8	61	44.4	3	9	270	0.00	29.650 
13:25	58.4	58.4	58.4	61	45.0	3	6	270	0.00	29.650 
13:30	58.0	58.0	58.0	60	44.2	3	7	270	0.00	29.652 
13:35	57.3	57.3	57.3	61	44.0	3	7	270	0.00	29.652 
13:40	57.2	57.2	57.2	62	44.3	2	6	270	0.00	29.652 
13:45	57.2	57.2	57.2	62	44.3	3	6	270	0.00	29.657 
13:50	56.7	56.7	56.7	62	43.8	3	10	292	0.00	29.657 
13:55	56.5	56.5	56.5	63	44.1	3	7	292	0.00	29.657 
14:00	56.3	56.3	56.3	63	43.9	3	6	270	0.00	29.661 
14:05	56.2	56.2	56.2	64	44.2	3	7	292	0.00	29.661 
14:10	56.0	56.0	56.0	64	44.0	4	7	270	0.00	29.661 
14:15	55.7	55.7	55.7	65	44.1	4	7	270	0.00	29.666 
14:20	55.7	55.7	55.7	65	44.1	3	7	270	0.00	29.666 
14:25	55.7	55.7	55.7	65	44.1	3	6	292	0.00	29.666 
14:30	55.6	55.6	55.6	64	43.6	4	7	270	0.00	29.669 
14:35	55.4	55.4	55.4	65	43.8	3	7	292	0.00	29.669 
14:40	55.1	55.1	55.1	66	43.9	3	7	270	0.00	29.669 
14:45	55.1	55.1	55.1	66	43.9	2	5	270	0.00	29.675 
14:50	55.1	55.1	55.1	65	43.5	3	7	270	0.00	29.675 
14:55	55.3	55.3	55.3	65	43.7	3	7	292	0.00	29.675 
15:00	55.3	55.3	55.3	65	43.7	3	9	270	0.00	29.678 
15:05	55.3	55.3	55.3	65	43.7	4	7	270	0.00	29.678 
15:10	55.1	55.1	55.1	65	43.5	3	5	270	0.00	29.678 
15:15	55.1	55.1	55.1	65	43.5	3	6	270	0.00	29.683 
15:20	55.1	55.1	55.1	65	43.5	4	7	292	0.00	29.683 
15:25	55.0	55.0	55.0	65	43.5	3	7	270	0.00	29.683 
15:30	55.0	55.0	55.0	65	43.5	2	6	270	0.00	29.694 
15:35	54.8	54.8	54.8	65	43.3	3	7	270	0.00	29.694 
15:40	54.8	54.8	54.8	65	43.3	3	5	292	0.00	29.694 
15:45	54.7	54.7	54.7	66	43.6	2	5	270	0.00	29.699 
15:50	54.7	54.7	54.7	66	43.6	2	7	270	0.00	29.699 
15:55	54.5	54.5	54.5	66	43.4	3	7	270	0.00	29.699 
16:00	54.5	54.5	54.5	66	43.4	3	7	270	0.00	29.706 
16:05	54.4	54.4	54.4	66	43.3	3	7	270	0.00	29.706 
16:10	54.4	54.4	54.4	66	43.3	2	6	292	0.00	29.706 
16:15	54.4	54.4	54.4	65	42.9	3	7	270	0.00	29.709 
16:20	54.4	54.4	54.4	66	43.3	1	6	270	0.00	29.709 
16:25	54.4	54.4	54.4	66	43.3	2	6	292	0.00	29.709 
16:30	54.5	54.5	54.5	65	43.0	2	6	292	0.00	29.710 
16:35	54.5	54.5	54.5	65	43.0	1	4	292	0.00	29.710 
16:40	54.4	54.4	54.4	65	42.9	2	5	292	0.00	29.710 
16:45	54.4	54.4	54.4	66	43.3	2	5	292	0.00	29.712 
16:50	54.4	54.4	54.4	66	43.3	2	5	292	0.00	29.712 
16:55	54.2	54.2	54.2	67	43.5	1	4	315	0.00	29.712 
17:00	54.2	54.2	54.2	67	43.5	2	5	270	0.00	29.716 
17:05	54.2	54.2	54.2	67	43.5	3	9	270	0.00	29.716 
17:10	54.1	54.1	54.1	68	43.8	3	7	292	0.00	29.716 
17:15	54.1	54.1	54.1	67	43.4	3	6	292	0.00	29.727 
17:20	54.1	54.1	54.1	67	43.4	2	4	292	0.00	29.727 
17:25	54.1	54.1	54.1	68	43.8	2	6	292	0.00	29.727 
17:30	53.9	53.9	53.9	68	43.6	3	5	292	0.00	29.730 
17:35	53.8	53.8	53.8	68	43.5	2	7	270	0.00	29.730 
17:40	53.8	53.8	53.8	68	43.5	3	6	270	0.00	29.730 
17:45	53.6	53.6	53.6	69	43.7	2	7	270	0.00	29.734 
17:50	53.6	53.6	53.6	69	43.7	1	5	292	0.00	29.734 
17:55	53.6	53.6	53.6	69	43.7	2	7	270	0.00	29.734 
18:00	53.6	53.6	53.6	69	43.7	2	4	270	0.00	29.741 
18:05	53.6	53.6	53.6	69	43.7	0	2	270	0.00	29.741 
18:10	53.6	53.6	53.6	70	44.1	0	2	270	0.00	29.741 
18:15	53.5	53.5	53.5	70	44.0	1	4	292	0.00	29.747 
18:20	53.5	53.5	53.5	71	44.3	1	3	292	0.00	29.747 
18:25	53.3	53.3	53.3	71	44.1	1	3	292	0.00	29.747 
18:30	53.2	53.2	53.2	72	44.4	0	3	292	0.00	29.751 
18:35	53.1	53.1	53.1	73	44.7	1	3	292	0.00	29.751 
18:40	52.9	52.9	52.9	73	44.5	1	5	270	0.00	29.751 
18:45	52.6	52.6	52.6	73	44.2	1	4	270	0.00	29.758 
18:50	52.5	52.5	52.5	73	44.1	2	7	292	0.00	29.758 
18:55	52.5	52.5	52.5	73	44.1	1	6	292	0.00	29.758 
19:00	52.5	52.5	52.5	73	44.1	2	6	292	0.00	29.759 
19:05	52.6	52.6	52.6	73	44.2	2	5	270	0.00	29.759 
19:10	52.6	52.6	52.6	73	44.2	1	4	292	0.00	29.759 
19:15	52.6	52.6	52.6	73	44.2	0	3	292	0.00	29.766 
19:20	52.5	52.5	52.5	73	44.1	2	6	292	0.00	29.766 
19:25	52.5	52.5	52.5	73	44.1	1	4	292	0.00	29.766 
19:30	52.5	52.5	52.5	72	43.7	1	4	270	0.00	29.769 
19:35	52.6	52.6	52.6	73	44.2	0	3	270	0.00	29.769 
19:40	52.6	52.6	52.6	73	44.2	1	3	270	0.00	29.769 
19:45	52.6	52.6	52.6	73	44.2	0	2	270	0.00	29.778 
19:50	52.5	52.5	52.5	72	43.7	1	4	292	0.00	29.778 
19:55	52.5	52.5	52.5	72	43.7	1	4	315	0.00	29.778 
20:00	52.5	52.5	52.5	72	43.7	0	2	315	0.00	29.779 
20:05	52.5	52.5	52.5	72	43.7	0	1	315	0.00	29.779 
20:10	52.5	52.5	52.5	72	43.7	1	4	270	0.00	29.779 
20:15	52.5	52.5	52.5	72	43.7	0	1	270	0.00	29.785 
20:20	52.5	52.5	52.5	72	43.7	0	1	270	0.00	29.785 
20:25	52.5	52.5	52.5	72	43.7	0	1	270	0.00	29.785 
20:30	52.5	52.5	52.5	72	43.7	0	1	270	0.00	29.794 
20:35	52.5	52.5	52.5	72	43.7	0	2	270	0.00	29.794 
20:40	52.5	52.5	52.5	72	43.7	0	1	270	0.00	29.794 
20:45	52.5	52.5	52.5	72	43.7	0	1	270	0.00	29.795 
20:50	52.5	52.5	52.5	72	43.7	0	2	270	0.00	29.795 
20:55	52.5	52.5	52.5	72	43.7	0	1	270	0.00	29.795 
21:00	52.5	52.5	52.5	72	43.7	0	1	270	0.00	29.798 
21:05	52.5	52.5	52.5	72	43.7	0	1	270	0.00	29.798 
21:10	52.5	52.5	52.5	72	43.7	0	1	270	0.00	29.798 
21:15	52.5	52.5	52.5	72	43.7	0	1	270	0.00	29.803 
21:20	52.5	52.5	52.5	72	43.7	0	1	270	0.00	29.803 
21:25	52.5	52.5	52.5	72	43.7	0	1	270	0.00	29.803 
21:30	52.5	52.5	52.5	72	43.7	0	0	---	0.00	29.809 
21:35	52.5	52.5	52.5	72	43.7	0	1	270	0.00	29.809 
21:40	52.5	52.5	52.5	72	43.7	0	1	270	0.00	29.809 
21:45	52.6	52.6	52.6	71	43.5	0	1	270	0.00	29.812 
21:50	52.6	52.6	52.6	72	43.8	0	0	---	0.00	29.812 
21:55	52.6	52.6	52.6	72	43.8	0	0	---	0.00	29.812 
22:00	52.6	52.6	52.6	72	43.8	0	0	---	0.00	29.813 
22:05	52.6	52.6	52.6	72	43.8	0	0	---	0.00	29.813 
22:10	52.5	52.5	52.5	72	43.7	0	0	---	0.00	29.813 
22:15	52.5	52.5	52.5	72	43.7	0	0	---	0.00	29.813 
22:20	52.3	52.3	52.3	72	43.5	0	0	---	0.00	29.813 
22:25	52.2	52.2	52.2	72	43.4	0	0	---	0.00	29.813 
22:30	52.0	52.0	52.0	72	43.3	0	0	---	0.00	29.815 
22:35	52.0	52.0	52.0	72	43.3	0	0	---	0.00	29.815 
22:40	51.9	51.9	51.9	72	43.2	0	1	270	0.00	29.815 
22:45	51.7	51.7	51.7	73	43.3	0	0	---	0.00	29.816 
22:50	51.7	51.7	51.7	73	43.3	0	0	---	0.00	29.816 
22:55	51.6	51.6	51.6	73	43.2	0	0	---	0.00	29.816 
23:00	51.4	51.4	51.4	73	43.0	0	0	---	0.00	29.814 
23:05	51.3	51.3	51.3	74	43.3	0	0	---	0.00	29.814 
23:10	51.0	51.0	51.0	74	43.0	0	0	---	0.00	29.814 
23:15	50.7	50.7	50.7	75	43.1	0	0	---	0.00	29.812 
23:20	50.4	50.4	50.4	75	42.8	0	0	---	0.00	29.812 
23:25	50.1	50.1	50.1	76	42.8	0	0	---	0.00	29.812 
23:30	49.8	49.8	49.8	77	42.9	0	0	---	0.00	29.812 
23:35	49.5	49.5	49.5	78	42.9	0	0	---	0.00	29.812 
23:40	49.2	49.2	49.2	79	43.0	0	1	270	0.00	29.812 
23:45	48.9	48.9	48.9	80	43.0	0	0	---	0.00	29.806 
23:50	48.8	48.8	48.8	80	42.9	0	0	---	0.00	29.806 
23:55	48.8	48.8	48.8	81	43.2	0	0	---	0.00	29.806 

CoCoRaHS
IN-AL-39
A2 Web Hosting
Creative Commons License
GoDaddy
search engine by freefind advanced

loaded 2018-11-16 08:28:02 • last modified 2010-11-18 10:43:29
Privacy PolicyDisclaimer
• wx.awcolley.com is powered by PmWiki v.2002016 •
• all content (unless otherwise noted) © 2018 A W Colley